Time;durP1;ratioP1;P1;durP2;ratioP2;P2;SDS_P1;SDS_P2;PMS_P1;PMS_P2;Temp;Humidity;BMP_temperature;BMP_pressure;BME280_temperature;BME280_humidity;BME280_pressure;Samples;Min_cycle;Max_cycle;Signal;HPM_P1;HPM_P2
2023/09/17 00:01:50;;;;;;;3.95;3.55;;;;;;;20.71;82.63;101227.78;20831860;28;20045;-63
2023/09/17 00:11:52;;;;;;;4.30;3.90;;;;;;;20.69;82.53;101219.78;20833187;28;20409;-63
2023/09/17 00:21:54;;;;;;;3.92;3.53;;;;;;;20.65;82.33;101207.56;20820187;28;20049;-63
2023/09/17 00:31:56;;;;;;;5.15;4.65;;;;;;;20.66;82.38;101214.69;20814502;28;20046;-63
2023/09/17 00:41:58;;;;;;;4.22;3.70;;;;;;;20.66;82.34;101211.16;20809283;28;20261;-63
2023/09/17 00:52:01;;;;;;;4.22;3.63;;;;;;;20.64;82.31;101218.56;20803091;28;20046;-63
2023/09/17 01:02:03;;;;;;;4.03;3.63;;;;;;;20.63;82.39;101198.75;20807517;28;20057;-63
2023/09/17 01:12:06;;;;;;;4.38;3.97;;;;;;;20.61;82.54;101189.09;20811471;28;20053;-63
2023/09/17 01:22:16;;;;;;;6.47;4.88;;;;;;;20.55;82.44;101177.00;20805486;28;20089;-63
2023/09/17 01:32:18;;;;;;;5.03;4.53;;;;;;;20.55;82.31;101175.16;20818087;28;20497;-63
2023/09/17 01:42:20;;;;;;;5.60;5.05;;;;;;;20.53;82.31;101169.03;20804459;28;20460;-63
2023/09/17 01:52:26;;;;;;;4.88;4.38;;;;;;;20.49;82.43;101180.31;20784337;28;20049;-63
2023/09/17 02:02:28;;;;;;;5.22;4.55;;;;;;;20.51;82.56;101173.72;20806785;28;20057;-63
2023/09/17 02:12:32;;;;;;;6.93;4.32;;;;;;;20.51;82.59;101179.13;20801449;28;20068;-63
2023/09/17 02:22:34;;;;;;;5.15;4.63;;;;;;;20.49;82.61;101177.59;20796939;28;20049;-62
2023/09/17 02:32:39;;;;;;;5.20;4.40;;;;;;;20.48;82.83;101163.19;20802341;28;20048;-63
2023/09/17 02:42:43;;;;;;;5.05;4.30;;;;;;;20.49;82.90;101169.47;20818843;28;20049;-63
2023/09/17 02:52:45;;;;;;;4.87;4.27;;;;;;;20.48;82.82;101173.19;20821007;28;20496;-63
2023/09/17 03:02:48;;;;;;;4.63;4.20;;;;;;;20.48;82.98;101175.88;20826135;28;20714;-63
2023/09/17 03:12:50;;;;;;;3.88;3.47;;;;;;;20.47;83.25;101182.31;20823779;28;20518;-63
2023/09/17 03:22:53;;;;;;;3.50;2.97;;;;;;;20.47;83.58;101185.84;20816923;28;20437;-63
2023/09/17 03:32:57;;;;;;;4.00;3.60;;;;;;;20.51;84.00;101192.66;20820956;28;20486;-63
2023/09/17 03:43:13;;;;;;;3.80;3.13;;;;;;;20.49;83.92;101183.00;20819318;28;20492;-63
2023/09/17 03:53:15;;;;;;;4.30;3.88;;;;;;;20.52;84.20;101180.00;20794111;28;20057;-64
2023/09/17 04:03:19;;;;;;;3.72;3.38;;;;;;;20.51;84.17;101175.59;20799212;28;20077;-63
2023/09/17 04:13:21;;;;;;;3.37;3.07;;;;;;;20.51;84.46;101178.28;20807294;28;20092;-63
2023/09/17 04:23:24;;;;;;;3.75;3.40;;;;;;;20.50;84.46;101176.59;20813797;28;20088;-63
2023/09/17 04:33:26;;;;;;;3.85;3.42;;;;;;;20.49;84.47;101167.63;20830658;28;20147;-63
2023/09/17 04:43:28;;;;;;;3.85;3.33;;;;;;;20.48;84.68;101159.66;20825285;28;20041;-63
2023/09/17 04:53:31;;;;;;;3.92;3.55;;;;;;;20.47;84.64;101156.09;20835593;28;20435;-63
2023/09/17 05:03:33;;;;;;;3.97;3.42;;;;;;;20.46;84.70;101162.50;20830892;28;20053;-63
2023/09/17 05:13:35;;;;;;;4.13;3.72;;;;;;;20.47;84.94;101155.25;20829961;28;20053;-63
2023/09/17 05:23:37;;;;;;;4.10;3.70;;;;;;;20.45;85.08;101151.84;20811790;28;20060;-63
2023/09/17 05:33:39;;;;;;;3.90;3.50;;;;;;;20.46;85.26;101140.03;20823436;28;20072;-63
2023/09/17 05:43:41;;;;;;;3.85;3.17;;;;;;;20.45;85.37;101147.28;20813254;28;20046;-63
2023/09/17 05:53:43;;;;;;;3.40;3.05;;;;;;;20.43;85.48;101149.28;20816811;28;20049;-63
2023/09/17 06:03:46;;;;;;;3.97;3.38;;;;;;;20.43;85.74;101138.47;20803814;28;20129;-63
2023/09/17 06:13:50;;;;;;;3.40;3.10;;;;;;;20.43;85.85;101150.16;20813743;28;20564;-63
2023/09/17 06:23:53;;;;;;;4.00;3.25;;;;;;;20.43;86.02;101143.88;20820861;28;20068;-63
2023/09/17 06:33:56;;;;;;;3.75;3.05;;;;;;;20.43;86.13;101143.88;20800609;28;20124;-63
2023/09/17 06:43:58;;;;;;;4.05;3.25;;;;;;;20.40;86.40;101153.16;20790059;28;20050;-62
2023/09/17 06:54:01;;;;;;;3.90;3.33;;;;;;;20.40;86.69;101133.34;20774352;28;20058;-62
2023/09/17 07:04:03;;;;;;;2.78;2.47;;;;;;;20.42;87.36;101124.09;20787067;28;20157;-62
2023/09/17 07:14:09;;;;;;;2.92;2.58;;;;;;;20.47;87.76;101128.22;20777642;28;20263;-62
2023/09/17 07:24:12;;;;;;;4.30;3.10;;;;;;;20.56;87.83;101093.03;20766049;28;20060;-62
2023/09/17 07:34:13;;;;;;;3.72;3.13;;;;;;;20.73;88.21;101087.81;20773156;28;20136;-62
2023/09/17 07:44:15;;;;;;;3.75;3.10;;;;;;;20.77;89.05;101081.09;20768413;28;20561;-63
2023/09/17 07:54:17;;;;;;;3.60;2.95;;;;;;;20.79;89.36;101075.56;20772930;28;57031;-62
2023/09/17 08:14:15;;;;;;;5.10;2.83;;;;;;;20.80;90.12;101077.28;20875088;27;49627;-63
2023/09/17 08:24:20;;;;;;;4.10;3.05;;;;;;;20.83;90.37;101069.69;20771816;28;20054;-62
2023/09/17 08:34:22;;;;;;;3.95;3.08;;;;;;;20.85;90.74;101066.84;20756883;28;53142;-60
2023/09/17 08:44:24;;;;;;;4.28;3.40;;;;;;;20.87;91.33;101064.84;20751900;28;20080;-60
2023/09/17 08:54:30;;;;;;;4.68;3.78;;;;;;;20.83;91.69;101047.19;20758915;28;20112;-60
2023/09/17 09:04:34;;;;;;;4.07;3.30;;;;;;;20.86;91.56;101052.31;20730387;28;21301;-60
2023/09/17 09:14:36;;;;;;;5.32;3.45;;;;;;;20.90;91.34;101064.53;20767770;28;20050;-60
2023/09/17 09:24:45;;;;;;;4.10;3.33;;;;;;;20.90;91.26;101059.13;20686975;28;20089;-60
2023/09/17 09:34:48;;;;;;;3.97;3.45;;;;;;;20.92;91.48;101049.00;20678865;28;20046;-60
2023/09/17 09:44:53;;;;;;;4.30;3.30;;;;;;;20.91;91.51;101041.88;20695326;28;20050;-60
2023/09/17 09:54:55;;;;;;;4.93;3.40;;;;;;;20.94;91.86;101028.03;20670471;28;20042;-63
2023/09/17 10:04:57;;;;;;;4.32;3.45;;;;;;;20.97;92.33;101027.72;20663827;28;20498;-62
2023/09/17 10:15:00;;;;;;;5.30;3.65;;;;;;;21.03;92.81;101025.41;20670155;28;20553;-61
2023/09/17 10:25:06;;;;;;;4.18;3.47;;;;;;;21.13;93.00;101020.75;20660092;28;20054;-63
2023/09/17 10:35:10;;;;;;;5.18;3.50;;;;;;;21.20;93.11;101016.41;20644924;28;20042;-61
2023/09/17 10:45:12;;;;;;;3.88;2.92;;;;;;;21.21;92.94;100998.34;20661149;28;20536;-61
2023/09/17 10:55:14;;;;;;;4.70;3.08;;;;;;;21.19;93.14;100998.47;20641584;28;20421;-59
2023/09/17 11:05:19;;;;;;;4.88;3.63;;;;;;;21.18;93.21;100993.22;20658730;28;20057;-62
2023/09/17 11:15:20;;;;;;;4.78;3.80;;;;;;;21.22;93.24;100987.34;20647393;28;20049;-61
2023/09/17 11:25:34;;;;;;;6.70;3.85;;;;;;;21.27;93.37;100966.06;20661032;28;20060;-61
2023/09/17 11:35:36;;;;;;;3.85;3.45;;;;;;;21.37;93.42;100954.28;20654079;28;20393;-62
2023/09/17 11:45:39;;;;;;;5.07;4.13;;;;;;;21.39;93.25;100942.28;20676442;28;20430;-63
2023/09/17 11:55:41;;;;;;;6.47;3.97;;;;;;;21.37;93.12;100940.75;20656122;28;20134;-63
2023/09/17 12:05:43;;;;;;;5.68;4.18;;;;;;;21.37;93.28;100943.47;20658721;28;20050;-63
2023/09/17 12:15:45;;;;;;;6.07;4.05;;;;;;;21.38;93.13;100940.56;20636950;28;20054;-62
2023/09/17 12:25:47;;;;;;;6.28;4.75;;;;;;;21.39;93.15;100927.91;20646897;28;20050;-62
2023/09/17 12:35:50;;;;;;;6.13;4.70;;;;;;;21.35;93.22;100934.66;20659954;28;20054;-62
2023/09/17 12:45:52;;;;;;;5.47;4.28;;;;;;;21.45;93.53;100927.25;20661110;28;20054;-63
2023/09/17 12:55:58;;;;;;;6.35;4.57;;;;;;;21.47;93.46;100927.13;20681415;28;20129;-62
2023/09/17 13:05:59;;;;;;;4.40;3.97;;;;;;;21.47;93.73;100930.66;20649704;28;20523;-63
2023/09/17 13:16:01;;;;;;;4.95;4.40;;;;;;;21.46;94.01;100939.78;20676493;28;20038;-63
2023/09/17 13:26:04;;;;;;;5.68;4.72;;;;;;;21.46;94.22;100934.38;20668883;28;20050;-63
2023/09/17 13:36:09;;;;;;;5.78;5.10;;;;;;;21.44;94.70;100944.53;20691114;28;20506;-63
2023/09/17 13:46:15;;;;;;;;;;;;;;;21.49;94.88;100939.47;20664636;28;20079;-63
2023/09/17 13:56:17;;;;;;;6.95;6.25;;;;;;;21.47;95.48;100919.81;20668482;28;20009;-63
2023/09/17 14:06:18;;;;;;;6.25;5.30;;;;;;;21.49;95.88;100917.81;20669451;28;20054;-63
2023/09/17 14:16:20;;;;;;;6.70;6.00;;;;;;;21.51;96.14;100899.53;20679638;28;20561;-62
2023/09/17 14:26:22;;;;;;;6.18;5.57;;;;;;;21.53;96.61;100897.50;20674435;28;20082;-63
2023/09/17 14:36:24;;;;;;;7.93;7.07;;;;;;;21.53;96.82;100891.25;20674865;28;20050;-61
2023/09/17 14:46:26;;;;;;;6.45;5.85;;;;;;;21.52;97.04;100882.28;20655749;28;20391;-63
2023/09/17 14:56:28;;;;;;;6.70;5.65;;;;;;;21.52;96.86;100874.16;20682328;28;20046;-66
2023/09/17 15:06:30;;;;;;;6.38;5.78;;;;;;;21.52;97.23;100874.16;20650174;28;20086;-65
2023/09/17 15:16:32;;;;;;;5.90;5.18;;;;;;;21.55;97.61;100875.69;20665457;28;20662;-65
2023/09/17 15:26:34;;;;;;;6.43;5.63;;;;;;;21.56;98.14;100867.38;20672407;28;20073;-66
2023/09/17 15:36:41;;;;;;;6.43;5.15;;;;;;;21.61;98.70;100866.06;20671414;28;20470;-65
2023/09/17 15:46:43;;;;;;;6.85;5.97;;;;;;;21.63;100.00;100864.91;20644261;28;20058;-65
2023/09/17 15:56:45;;;;;;;7.93;6.20;;;;;;;21.69;100.00;100871.56;20674765;28;20052;-64
2023/09/17 16:06:47;;;;;;;9.35;6.53;;;;;;;21.74;100.00;100871.94;20658973;28;20054;-63
2023/09/17 16:16:48;;;;;;;7.30;6.00;;;;;;;21.84;100.00;100866.34;20662005;28;20133;-63
2023/09/17 16:26:50;;;;;;;6.90;6.20;;;;;;;21.92;100.00;100852.00;20670412;28;20056;-63
2023/09/17 16:36:52;;;;;;;6.20;5.47;;;;;;;21.94;100.00;100860.81;20680980;28;20065;-64
2023/09/17 16:46:54;;;;;;;6.55;5.35;;;;;;;21.94;100.00;100860.81;20688958;28;20080;-63
2023/09/17 16:56:56;;;;;;;6.43;5.30;;;;;;;21.92;100.00;100860.13;20672845;28;20061;-62
2023/09/17 17:06:58;;;;;;;7.28;5.78;;;;;;;21.91;100.00;100850.28;20689212;28;20058;-61
2023/09/17 17:17:00;;;;;;;7.00;6.30;;;;;;;21.84;100.00;100834.69;20668509;28;20049;-60
2023/09/17 17:27:03;;;;;;;7.60;5.78;;;;;;;21.76;100.00;100840.09;20671569;28;20418;-61
2023/09/17 17:37:05;;;;;;;6.82;5.80;;;;;;;21.70;100.00;100840.75;20678522;28;20050;-62
2023/09/17 17:47:07;;;;;;;5.90;5.30;;;;;;;21.67;100.00;100832.94;20667487;28;20052;-61
2023/09/17 17:57:10;;;;;;;6.13;5.53;;;;;;;21.67;100.00;100814.81;20683664;28;20529;-62
2023/09/17 18:07:13;;;;;;;6.60;5.30;;;;;;;21.65;100.00;100824.09;20667605;28;20053;-61
2023/09/17 18:17:15;;;;;;;5.05;4.55;;;;;;;21.64;100.00;100811.56;20735289;28;20057;-62
2023/09/17 18:27:17;;;;;;;6.05;5.00;;;;;;;21.63;100.00;100812.56;20721572;28;20046;-62
2023/09/17 18:37:19;;;;;;;4.85;4.35;;;;;;;21.60;100.00;100794.78;20664298;28;20050;-62
2023/09/17 18:47:21;;;;;;;5.15;4.53;;;;;;;21.55;100.00;100792.56;20682406;28;20046;-62
2023/09/17 18:57:23;;;;;;;5.38;4.88;;;;;;;21.52;100.00;100792.88;20670005;28;20050;-62
2023/09/17 19:07:26;;;;;;;4.97;4.47;;;;;;;21.48;100.00;100796.94;20675362;28;20548;-62
2023/09/17 19:17:30;;;;;;;5.00;4.47;;;;;;;21.40;100.00;100767.13;20698250;28;20056;-62
2023/09/17 19:27:32;;;;;;;5.17;4.67;;;;;;;21.42;100.00;100775.94;20730944;28;20056;-62
2023/09/17 19:37:34;;;;;;;5.35;4.30;;;;;;;21.42;100.00;100781.34;20739336;28;20085;-62
2023/09/17 19:47:36;;;;;;;4.63;4.22;;;;;;;21.39;100.00;100778.97;20740761;28;20124;-62
2023/09/17 19:57:38;;;;;;;4.63;4.22;;;;;;;21.37;100.00;100768.28;20741380;28;20129;-61
2023/09/17 20:07:40;;;;;;;4.95;4.50;;;;;;;21.36;100.00;100752.22;20722104;28;20058;-61
2023/09/17 20:17:42;;;;;;;4.70;4.30;;;;;;;21.34;100.00;100725.28;20719271;28;20073;-62
2023/09/17 20:27:58;;;;;;;5.82;4.38;;;;;;;21.32;100.00;100710.22;20704116;28;20506;-61
2023/09/17 20:38:00;;;;;;;4.15;3.75;;;;;;;21.28;99.68;100705.13;20706444;28;20046;-62
2023/09/17 20:48:02;;;;;;;4.32;3.92;;;;;;;21.24;99.36;100703.78;20679396;28;20045;-61
2023/09/17 20:58:03;;;;;;;4.63;4.13;;;;;;;21.18;99.09;100720.63;20703043;28;20051;-62
2023/09/17 21:08:05;;;;;;;5.65;4.45;;;;;;;21.15;99.07;100727.25;20656771;28;20058;-61
2023/09/17 21:18:07;;;;;;;4.70;4.25;;;;;;;21.13;99.14;100723.00;20689585;28;20562;-62
2023/09/17 21:28:09;;;;;;;4.25;3.85;;;;;;;21.10;99.07;100702.53;20669497;28;20101;-62
2023/09/17 21:38:11;;;;;;;4.50;4.10;;;;;;;21.09;99.02;100714.38;20704747;28;20050;-61
2023/09/17 21:48:13;;;;;;;4.22;3.83;;;;;;;21.06;98.83;100703.00;20722638;28;20391;-62
2023/09/17 21:58:14;;;;;;;3.60;3.30;;;;;;;21.03;98.58;100679.84;20680903;28;20086;-62
2023/09/17 22:08:17;;;;;;;4.00;3.60;;;;;;;21.02;98.26;100678.13;20676951;28;20054;-61
2023/09/17 22:18:19;;;;;;;3.78;3.40;;;;;;;21.00;98.27;100689.13;20673751;28;20502;-61
2023/09/17 22:28:21;;;;;;;3.50;3.20;;;;;;;20.97;97.80;100665.09;20683167;28;20056;-62
2023/09/17 22:38:23;;;;;;;3.67;3.38;;;;;;;20.95;97.58;100634.63;20680399;28;20062;-61
2023/09/17 22:48:25;;;;;;;3.10;2.80;;;;;;;20.94;97.36;100621.25;20700463;28;20506;-62
2023/09/17 22:58:27;;;;;;;2.80;2.60;;;;;;;20.96;97.43;100614.69;20689190;28;20050;-61
2023/09/17 23:08:29;;;;;;;2.67;2.45;;;;;;;20.98;97.04;100612.66;20700363;28;20101;-61
2023/09/17 23:18:32;;;;;;;2.70;2.50;;;;;;;20.99;96.90;100572.91;20698445;28;20046;-62
2023/09/17 23:28:36;;;;;;;2.70;2.50;;;;;;;20.98;96.86;100566.66;20701464;28;20277;-62
2023/09/17 23:38:38;;;;;;;3.33;3.03;;;;;;;20.98;96.89;100552.25;20678034;28;20054;-62
2023/09/17 23:48:40;;;;;;;2.67;2.40;;;;;;;20.96;96.74;100543.47;20674926;28;20082;-61
2023/09/17 23:58:42;;;;;;;2.45;2.25;;;;;;;20.94;96.71;100530.13;20696494;28;20395;-62
